PAEN/ENA METAR and TAF weather

Enter ICAO airport designator
Station Type Date Time Source
PAEN METAR 2019/06/17 15:21 UTC NOAA

PAEN 171521Z 35003KT 5SM BR SCT001 08/07 A2964 RMK AO2 BCFG T00830072


Station Type Date Time Source
PAEN Decoded METAR 2019/06/17 15:21 UTC NOAA

KENAI MUNICIPAL AIRPORT, AK, United States (PAEN) 60-35N 151-14W 25M
Jun 17, 2019 - 11:21 AM EDT / 2019.06.17 1521 UTC
Wind: from the N (350 degrees) at 3 MPH (3 KT):0
Visibility: 5 mile(s):0
Sky conditions: partly cloudy
Weather: mist
Temperature: 46.9 F (8.3 C)
Dew Point: 45.0 F (7.2 C)
Relative Humidity: 92%
Pressure (altimeter): 29.64 in. Hg (1003 hPa)
ob: PAEN 171521Z 35003KT 5SM BR SCT001 08/07 A2964 RMK AO2 BCFG T00830072
cycle: 15

Station Type Date Time Source
PAEN TAF 2019/06/17 13:09 UTC NOAA

TAF
AMD PAEN 171305Z 1713/1812 VRB06KT P6SM VCFG BKN120
TEMPO 1713/1716 1/2SM FG BKN002
FM180600 19010KT P6SM BKN120

Example: see airport list